Aérodrome :
LOGIN :

S'inscrire | Disclaimer

   EN    FR    IT 

 










Légende :    VFR   VFR Marginal   IFR   IFR Intensif   IFR Très Intensif
Visi : 
Plafond : 
>= 8 km
>= 3000ft
5 à 8 km
1000 à 3000 ft
1500m à 5 km
500 à 1000 ft
800 à 1500m
200 à 500 ft
< 800m
< 200 ft
Symboles :   Orages  Brouillard  Fortes neiges  Fortes précipitations  Vent > 20 kt
SIGMETs :   Divers  Orages  Givrage  Turbulence  Onde Orograph.  Cendres Volcan.







- Altitude de l'aérodrome : 7 ft
- Code IATA : VCE


LIPZ - Marco Polo Int. Venezia

DERNIER METAR :
  • 191220Z 18004KT 150V220 CAVOK 28/16 Q1015 NOSIG

METARs EXPIRÉS :
  • 191150Z 18004KT 150V210 CAVOK 28/16 Q1015 NOSIG
  • 191120Z 19005KT 150V220 CAVOK 27/17 Q1016 NOSIG
  • 191050Z 18005KT 130V210 CAVOK 27/17 Q1016 NOSIG
  • 191020Z 18003KT 140V230 CAVOK 27/17 Q1016 NOSIG
  • 190950Z 16003KT 130V190 CAVOK 27/16 Q1016 NOSIG
  • 190920Z 15004KT 130V200 CAVOK 26/16 Q1016 NOSIG

TAF TAF LIPZ
Valide du 19 à 12h jusqu'au 20 à 18h UTC


191100Z 1912/2018 16010KT 9999 FEW040
BECMG 1916/1918 VRB05KT
BECMG 2010/2012 16010KT
Pas de NOTAMs connus pour ce terrain.



MET'MAP, la Météo Aéronautique d'un coup d'oeil ! - Copyright ORBIFLY Décembre 2007 - Disclaimer

ORBIFLY MET'MAP TEAM :

Programmation & Développement : Alexandra Zaïnal
Conception & Développement : Baudouin d'Aumeries
Co-Programmation & Développement : Marc-Olivier Méhu
Soutien technique & logistique : Manuel Goepfert

Contact : metmap@orbifly.com




SOURCES & CREDITS :

   NOAA